Flight Track Log - Related Links

Times and Time Zones

All times are in EDT time to prevent confusion due to time zone crossing. See the N71AF flight status page for this flight to view local times or setup timezone preferences in your user account.

Time Position Orientation Groundspeed Altitude Reporting Facility
EDT Latitude Longitude Course Direction KTS MPH feet Rate Location/Type
Sat 10:57:27 PM 32.9667 -96.8333 90° East 66 76 1,000  Level Dallas / Fort Worth TRACON
Sat 10:58:33 PM 32.9667 -96.8167 90° East 82 94 1,500 396 Climbing Dallas / Fort Worth TRACON
Sat 10:59:13 PM 32.9828 -96.8108 17° North 85 98 1,700 356 Climbing Fort Worth Center
Sat 11:00:14 PM 33.0050 -96.7931 34° Northeast 92 106 2,100 344 Climbing Fort Worth Center
Sat 11:01:15 PM 33.0339 -96.7839 15° North 106 122 2,400 344 Climbing Fort Worth Center
Sat 11:02:16 PM 33.0658 -96.7794 North 107 123 2,800 393 Climbing Fort Worth Center
Sat 11:03:17 PM 33.0931 -96.7675 20° North 107 123 3,200 344 Climbing Fort Worth Center
Sat 11:04:18 PM 33.1208 -96.7525 24° Northeast 107 123 3,500 246 Climbing Fort Worth Center
Sat 11:05:19 PM 33.1517 -96.7406 18° North 114 131 3,700 246 Climbing Fort Worth Center
Sat 11:06:20 PM 33.1825 -96.7300 16° North 114 131 4,000 344 Climbing Fort Worth Center
Sat 11:07:21 PM 33.2119 -96.7192 17° North 114 131 4,400 344 Climbing Fort Worth Center
Sat 11:08:22 PM 33.2456 -96.7117 11° North 113 130 4,700 344 Climbing Fort Worth Center
Sat 11:09:23 PM 33.2742 -96.7008 18° North 112 129 5,100 393 Climbing Fort Worth Center
Sat 11:10:24 PM 33.3028 -96.6936 12° North 104 120 5,500 246 Climbing Fort Worth Center
Sat 11:11:25 PM 33.3347 -96.6869 10° North 115 132 5,600  Climbing Fort Worth Center
Sat 11:12:26 PM 33.3694 -96.6736 18° North 127 146 5,500 -49 Descending Fort Worth Center
Sat 11:13:27 PM 33.4036 -96.6561 23° Northeast 126 145 5,500  Level Fort Worth Center
Sat 11:14:27 PM 33.4333 -96.6411 23° Northeast 119 137 5,500 50 Level Fort Worth Center
Sat 11:15:28 PM 33.4636 -96.6264 22° Northeast 119 137 5,600 49 Climbing Fort Worth Center
Sat 11:16:29 PM 33.4936 -96.6122 21° North 114 131 5,600  Level Fort Worth Center
Sat 11:17:30 PM 33.5239 -96.5989 20° North 116 133 5,600  Level Fort Worth Center
Sat 11:18:31 PM 33.5589 -96.5878 15° North 119 137 5,600 -49 Level Fort Worth Center
Sat 11:19:32 PM 33.5900 -96.5742 20° North 119 137 5,500  Descending Fort Worth Center
Sat 11:20:33 PM 33.6203 -96.5608 20° North 116 133 5,600  Climbing Fort Worth Center
Sat 11:21:34 PM 33.6489 -96.5403 31° Northeast 120 138 5,500 -49 Descending Fort Worth Center
Sat 11:22:35 PM 33.6811 -96.5244 22° Northeast 121 139 5,500  Level Fort Worth Center
Sat 11:23:35 PM 33.7142 -96.5136 15° North 118 136 5,500  Level Fort Worth Center
Sat 11:24:36 PM 33.7442 -96.4983 23° Northeast 118 136 5,500  Level Fort Worth Center
Sat 11:25:37 PM 33.7725 -96.4811 27° Northeast 117 135 5,500  Level Fort Worth Center
Sat 11:26:38 PM 33.8031 -96.4681 20° North 116 133 5,500  Level Fort Worth Center
Sat 11:27:39 PM 33.8314 -96.4625 North 112 129 5,500  Level Fort Worth Center

Login

Don't have an account? Register now (free) for customized features, flight alerts, and more!